sensor_id;sensor_type;location;lat;lon;timestamp;pressure;altitude;pressure_sealevel;temperature;humidity
32759;BME280;19125;52.360;9.974;2023-04-30T00:02:14;87640.09;;;-145.17;62.40
32759;BME280;19125;52.360;9.974;2023-04-30T00:04:40;87657.94;;;-145.17;62.40
32759;BME280;19125;52.360;9.974;2023-04-30T00:07:05;87612.28;;;-145.17;62.42
32759;BME280;19125;52.360;9.974;2023-04-30T00:09:30;87644.06;;;-145.17;62.49
32759;BME280;19125;52.360;9.974;2023-04-30T00:11:56;87675.81;;;-145.17;62.72
32759;BME280;19125;52.360;9.974;2023-04-30T00:14:21;87699.63;;;-145.17;62.43
32759;BME280;19125;52.360;9.974;2023-04-30T00:16:46;87687.72;;;-145.17;62.65
32759;BME280;19125;52.360;9.974;2023-04-30T00:19:12;87667.88;;;-145.17;62.66
32759;BME280;19125;52.360;9.974;2023-04-30T00:21:37;87691.69;;;-145.17;62.67
32759;BME280;19125;52.360;9.974;2023-04-30T00:24:02;87717.50;;;-145.17;62.53
32759;BME280;19125;52.360;9.974;2023-04-30T00:26:28;87683.75;;;-145.17;62.68
32759;BME280;19125;52.360;9.974;2023-04-30T00:28:53;87683.75;;;-145.17;62.94
32759;BME280;19125;52.360;9.974;2023-04-30T00:31:19;87713.53;;;-145.17;63.08
32759;BME280;19125;52.360;9.974;2023-04-30T00:33:44;87671.84;;;-145.17;62.84
32759;BME280;19125;52.360;9.974;2023-04-30T00:36:10;87713.53;;;-145.17;63.22
32759;BME280;19125;52.360;9.974;2023-04-30T00:38:36;87707.59;;;-145.17;63.20
32759;BME280;19125;52.360;9.974;2023-04-30T00:41:01;87675.81;;;-145.17;63.29
32759;BME280;19125;52.360;9.974;2023-04-30T00:43:26;87703.59;;;-145.17;63.16
32759;BME280;19125;52.360;9.974;2023-04-30T00:45:52;87699.63;;;-145.17;63.42
32759;BME280;19125;52.360;9.974;2023-04-30T00:48:17;87689.72;;;-145.17;63.78
32759;BME280;19125;52.360;9.974;2023-04-30T00:50:43;87719.50;;;-145.17;63.81
32759;BME280;19125;52.360;9.974;2023-04-30T00:53:10;87727.44;;;-145.17;63.80
32759;BME280;19125;52.360;9.974;2023-04-30T00:55:36;87661.94;;;-145.17;64.17
32759;BME280;19125;52.360;9.974;2023-04-30T00:58:02;87648.03;;;-145.17;64.29
32759;BME280;19125;52.360;9.974;2023-04-30T01:00:27;87640.09;;;-145.17;64.35
32759;BME280;19125;52.360;9.974;2023-04-30T01:02:52;87640.09;;;-145.17;64.60
32759;BME280;19125;52.360;9.974;2023-04-30T01:05:19;87646.03;;;-145.17;64.67
32759;BME280;19125;52.360;9.974;2023-04-30T01:07:47;87600.38;;;-145.17;64.90
32759;BME280;19125;52.360;9.974;2023-04-30T01:10:14;87570.59;;;-145.17;64.92
32759;BME280;19125;52.360;9.974;2023-04-30T01:12:49;87515.03;;;-145.17;65.01
32759;BME280;19125;52.360;9.974;2023-04-30T01:15:42;87497.16;;;-145.17;65.14
32759;BME280;19125;52.360;9.974;2023-04-30T01:18:18;87441.59;;;-145.17;65.28
32759;BME280;19125;52.360;9.974;2023-04-30T01:20:49;87399.91;;;-145.17;65.26
32759;BME280;19125;52.360;9.974;2023-04-30T01:28:55;87217.28;;;-145.17;65.74
32759;BME280;19125;52.360;9.974;2023-04-30T01:31:22;87145.81;;;-145.17;65.92
32759;BME280;19125;52.360;9.974;2023-04-30T01:33:48;87050.56;;;-145.17;66.12
32759;BME280;19125;52.360;9.974;2023-04-30T01:36:44;86941.38;;;-145.17;66.11
32759;BME280;19125;52.360;9.974;2023-04-30T01:50:12;86052.31;;;-145.17;66.58
32759;BME280;19125;52.360;9.974;2023-04-30T01:52:49;85760.63;;;-145.17;66.87
32759;BME280;19125;52.360;9.974;2023-04-30T01:55:44;85498.75;;;-145.17;66.85
32759;BME280;19125;52.360;9.974;2023-04-30T01:58:14;85248.75;;;-145.17;66.92
32759;BME280;19125;52.360;9.974;2023-04-30T02:00:40;85010.69;;;-145.17;67.17
32759;BME280;19125;52.360;9.974;2023-04-30T02:03:06;84665.53;;;-145.17;66.97
32759;BME280;19125;52.360;9.974;2023-04-30T02:05:31;84417.56;;;-145.17;67.34
32759;BME280;19125;52.360;9.974;2023-04-30T02:07:57;84106.19;;;-145.17;67.13
32759;BME280;19125;52.360;9.974;2023-04-30T02:10:24;83830.50;;;-145.17;67.14
32759;BME280;19125;52.360;9.974;2023-04-30T02:12:50;83473.53;;;-145.17;67.27
32759;BME280;19125;52.360;9.974;2023-04-30T02:15:17;83072.97;;;-145.17;67.46
32759;BME280;19125;52.360;9.974;2023-04-30T02:17:43;82839.00;;;-145.17;67.41
32759;BME280;19125;52.360;9.974;2023-04-30T02:20:09;82494.03;;;-145.17;67.79
32759;BME280;19125;52.360;9.974;2023-04-30T02:22:35;82285.88;;;-145.17;67.86
32759;BME280;19125;52.360;9.974;2023-04-30T02:25:01;81812.09;;;-145.17;67.89
32759;BME280;19125;52.360;9.974;2023-04-30T02:27:29;81586.13;;;-145.17;67.66
32759;BME280;19125;52.360;9.974;2023-04-30T02:29:55;81372.06;;;-145.17;67.89
32759;BME280;19125;52.360;9.974;2023-04-30T02:32:20;81205.56;;;-145.17;67.80
32759;BME280;19125;52.360;9.974;2023-04-30T02:34:45;81169.91;;;-145.17;67.62
32759;BME280;19125;52.360;9.974;2023-04-30T02:37:11;81173.88;;;-145.17;67.86
32759;BME280;19125;52.360;9.974;2023-04-30T02:39:36;81471.16;;;-145.17;67.33
32759;BME280;19125;52.360;9.974;2023-04-30T02:42:02;82505.94;;;-145.17;67.75
32759;BME280;19125;52.360;9.974;2023-04-30T02:44:28;83350.59;;;-145.17;67.50
32759;BME280;19125;52.360;9.974;2023-04-30T02:46:54;84082.38;;;-145.17;67.18
32759;BME280;19125;52.360;9.974;2023-04-30T02:49:19;84564.34;;;-145.17;66.94
32759;BME280;19125;52.360;9.974;2023-04-30T02:51:46;84846.03;;;-145.17;66.83
32759;BME280;19125;52.360;9.974;2023-04-30T02:54:11;84969.03;;;-145.17;67.16
32759;BME280;19125;52.360;9.974;2023-04-30T02:56:37;85123.78;;;-145.17;67.40
32759;BME280;19125;52.360;9.974;2023-04-30T02:59:03;85066.25;;;-145.17;67.44
32759;BME280;19125;52.360;9.974;2023-04-30T03:01:29;85052.34;;;-145.17;67.21
32759;BME280;19125;52.360;9.974;2023-04-30T03:03:54;85026.56;;;-145.17;67.07
32759;BME280;19125;52.360;9.974;2023-04-30T03:06:20;84953.16;;;-145.17;67.11
32759;BME280;19125;52.360;9.974;2023-04-30T03:08:45;84865.88;;;-145.17;66.99
32759;BME280;19125;52.360;9.974;2023-04-30T03:11:12;84578.25;;;-145.17;67.29
32759;BME280;19125;52.360;9.974;2023-04-30T03:13:38;84405.69;;;-145.17;67.32
32759;BME280;19125;52.360;9.974;2023-04-30T03:16:03;84237.09;;;-145.17;67.01
32759;BME280;19125;52.360;9.974;2023-04-30T03:18:29;84005.03;;;-145.17;67.70
32759;BME280;19125;52.360;9.974;2023-04-30T03:20:55;83669.88;;;-145.17;67.48
32759;BME280;19125;52.360;9.974;2023-04-30T03:23:21;82942.13;;;-145.17;67.83
32759;BME280;19125;52.360;9.974;2023-04-30T03:25:47;82105.47;;;-145.17;68.13
32759;BME280;19125;52.360;9.974;2023-04-30T03:28:12;81354.22;;;-145.17;68.07
32759;BME280;19125;52.360;9.974;2023-04-30T03:30:38;80678.41;;;-145.17;67.91
32759;BME280;19125;52.360;9.974;2023-04-30T03:33:03;79929.41;;;-145.17;68.24
32759;BME280;19125;52.360;9.974;2023-04-30T03:35:32;79071.63;;;-145.17;68.05
32759;BME280;19125;52.360;9.974;2023-04-30T03:37:58;78465.50;;;-145.17;67.98
32759;BME280;19125;52.360;9.974;2023-04-30T03:40:23;77619.91;;;-145.17;68.13
32759;BME280;19125;52.360;9.974;2023-04-30T03:42:48;76610.16;;;-145.17;68.33
32759;BME280;19125;52.360;9.974;2023-04-30T03:45:14;75192.97;;;-145.17;68.45
32759;BME280;19125;52.360;9.974;2023-04-30T03:47:40;73663.53;;;-145.17;68.81
32759;BME280;19125;52.360;9.974;2023-04-30T03:50:05;72371.97;;;-145.17;68.54
32759;BME280;19125;52.360;9.974;2023-04-30T03:52:31;71636.38;;;-145.17;68.44
32759;BME280;19125;52.360;9.974;2023-04-30T03:54:57;71881.56;;;-145.17;68.59
32759;BME280;19125;52.360;9.974;2023-04-30T03:57:23;72854.53;;;-145.17;68.40
32759;BME280;19125;52.360;9.974;2023-04-30T03:59:49;73329.22;;;-145.17;68.40
32759;BME280;19125;52.360;9.974;2023-04-30T04:02:14;74203.59;;;-145.17;68.46
32759;BME280;19125;52.360;9.974;2023-04-30T04:04:40;75010.91;;;-145.17;68.50
32759;BME280;19125;52.360;9.974;2023-04-30T04:07:06;76208.28;;;-145.17;68.15
32759;BME280;19125;52.360;9.974;2023-04-30T04:09:33;77406.03;;;-145.17;67.93
32759;BME280;19125;52.360;9.974;2023-04-30T04:11:59;78227.84;;;-145.17;67.86
32759;BME280;19125;52.360;9.974;2023-04-30T04:14:25;79190.47;;;-145.17;68.22
32759;BME280;19125;52.360;9.974;2023-04-30T04:16:50;79612.44;;;-145.17;67.68
32759;BME280;19125;52.360;9.974;2023-04-30T04:19:16;80220.69;;;-145.17;68.07
32759;BME280;19125;52.360;9.974;2023-04-30T04:21:41;80371.28;;;-145.17;67.79
32759;BME280;19125;52.360;9.974;2023-04-30T04:24:06;80046.31;;;-145.17;67.44
32759;BME280;19125;52.360;9.974;2023-04-30T04:26:33;81062.88;;;-145.17;67.40
32759;BME280;19125;52.360;9.974;2023-04-30T04:29:00;82979.78;;;-145.17;66.71
32759;BME280;19125;52.360;9.974;2023-04-30T04:31:26;84738.91;;;-145.17;66.52
32759;BME280;19125;52.360;9.974;2023-04-30T04:33:52;85778.50;;;-145.17;66.11
32759;BME280;19125;52.360;9.974;2023-04-30T04:36:26;86540.50;;;-145.17;65.88
32759;BME280;19125;52.360;9.974;2023-04-30T04:38:53;86925.50;;;-145.17;65.70
32759;BME280;19125;52.360;9.974;2023-04-30T04:41:18;87124.00;;;-145.17;65.08
32759;BME280;19125;52.360;9.974;2023-04-30T04:43:43;87266.91;;;-145.17;65.23
32759;BME280;19125;52.360;9.974;2023-04-30T04:46:09;87330.44;;;-145.17;65.02
32759;BME280;19125;52.360;9.974;2023-04-30T04:48:35;87399.91;;;-145.17;64.57
32759;BME280;19125;52.360;9.974;2023-04-30T04:51:01;87451.50;;;-145.17;64.47
32759;BME280;19125;52.360;9.974;2023-04-30T04:53:26;87453.50;;;-145.17;64.59
32759;BME280;19125;52.360;9.974;2023-04-30T04:55:51;87519.00;;;-145.17;64.20
32759;BME280;19125;52.360;9.974;2023-04-30T04:58:17;87572.59;;;-145.17;63.78
32759;BME280;19125;52.360;9.974;2023-04-30T05:00:43;87606.34;;;-145.17;63.52
32759;BME280;19125;52.360;9.974;2023-04-30T05:03:08;87594.44;;;-145.17;63.68
32759;BME280;19125;52.360;9.974;2023-04-30T05:05:34;87602.38;;;-145.17;63.51
32759;BME280;19125;52.360;9.974;2023-04-30T05:07:59;87580.53;;;-145.17;63.37
32759;BME280;19125;52.360;9.974;2023-04-30T05:10:25;87630.16;;;-145.17;63.31
32759;BME280;19125;52.360;9.974;2023-04-30T05:12:50;87580.53;;;-145.17;63.16
32759;BME280;19125;52.360;9.974;2023-04-30T05:15:15;87580.53;;;-145.17;62.64
32759;BME280;19125;52.360;9.974;2023-04-30T05:17:41;87622.22;;;-145.17;62.66
32759;BME280;19125;52.360;9.974;2023-04-30T05:20:07;87616.25;;;-145.17;62.21
32759;BME280;19125;52.360;9.974;2023-04-30T05:22:32;87584.50;;;-145.17;62.24
32759;BME280;19125;52.360;9.974;2023-04-30T05:24:58;87556.72;;;-145.17;61.59
32759;BME280;19125;52.360;9.974;2023-04-30T05:27:23;87560.69;;;-145.17;61.10
32759;BME280;19125;52.360;9.974;2023-04-30T05:29:48;87542.81;;;-145.17;61.04
32759;BME280;19125;52.360;9.974;2023-04-30T05:32:14;87548.78;;;-145.17;60.74
32759;BME280;19125;52.360;9.974;2023-04-30T05:34:39;87473.34;;;-145.17;60.17
32759;BME280;19125;52.360;9.974;2023-04-30T05:37:05;87467.38;;;-145.17;59.68
32759;BME280;19125;52.360;9.974;2023-04-30T05:39:30;87419.75;;;-145.17;59.11
32759;BME280;19125;52.360;9.974;2023-04-30T05:41:55;87389.97;;;-145.17;58.20
32759;BME280;19125;52.360;9.974;2023-04-30T05:44:21;87320.50;;;-145.17;57.40
32759;BME280;19125;52.360;9.974;2023-04-30T05:46:46;87322.47;;;-145.17;57.27
32759;BME280;19125;52.360;9.974;2023-04-30T05:49:12;87284.78;;;-145.17;56.43
32759;BME280;19125;52.360;9.974;2023-04-30T05:51:40;87241.09;;;-145.17;55.63
32759;BME280;19125;52.360;9.974;2023-04-30T05:54:06;87207.34;;;-145.17;55.60
32759;BME280;19125;52.360;9.974;2023-04-30T05:56:31;87209.34;;;-145.17;55.38
32759;BME280;19125;52.360;9.974;2023-04-30T05:58:57;87159.72;;;-145.17;54.73
32759;BME280;19125;52.360;9.974;2023-04-30T06:01:24;87173.63;;;-145.17;54.22
32759;BME280;19125;52.360;9.974;2023-04-30T06:03:49;87133.91;;;-145.17;53.36
32759;BME280;19125;52.360;9.974;2023-04-30T06:06:14;87122.00;;;-145.17;53.01
32759;BME280;19125;52.360;9.974;2023-04-30T06:08:40;87054.53;;;-145.17;53.41
32759;BME280;19125;52.360;9.974;2023-04-30T06:11:08;87064.44;;;-145.17;52.59
32759;BME280;19125;52.360;9.974;2023-04-30T06:13:35;87060.47;;;-145.17;52.12
32759;BME280;19125;52.360;9.974;2023-04-30T06:16:00;87012.84;;;-145.17;51.74
32759;BME280;19125;52.360;9.974;2023-04-30T06:18:25;87006.88;;;-145.17;51.45
32759;BME280;19125;52.360;9.974;2023-04-30T06:20:51;87018.81;;;-145.17;50.99
32759;BME280;19125;52.360;9.974;2023-04-30T06:23:16;86975.13;;;-145.17;50.24
32759;BME280;19125;52.360;9.974;2023-04-30T06:25:41;86941.38;;;-145.17;49.52
32759;BME280;19125;52.360;9.974;2023-04-30T06:28:06;86913.59;;;-145.17;49.84
32759;BME280;19125;52.360;9.974;2023-04-30T06:30:34;86889.78;;;-145.17;49.43
32759;BME280;19125;52.360;9.974;2023-04-30T06:32:59;86899.72;;;-145.17;48.63
32759;BME280;19125;52.360;9.974;2023-04-30T06:35:24;86865.97;;;-145.17;48.57
32759;BME280;19125;52.360;9.974;2023-04-30T06:37:50;86846.13;;;-145.17;47.67
32759;BME280;19125;52.360;9.974;2023-04-30T06:40:16;86834.22;;;-145.17;47.40
32759;BME280;19125;52.360;9.974;2023-04-30T06:42:41;86832.22;;;-145.17;46.93
32759;BME280;19125;52.360;9.974;2023-04-30T06:45:07;86832.22;;;-145.17;45.90
32759;BME280;19125;52.360;9.974;2023-04-30T06:47:32;86832.22;;;-145.17;46.54
32759;BME280;19125;52.360;9.974;2023-04-30T06:50:03;86802.47;;;-145.17;46.98
32759;BME280;19125;52.360;9.974;2023-04-30T06:52:29;86814.38;;;-145.17;45.94
32759;BME280;19125;52.360;9.974;2023-04-30T06:54:55;86796.50;;;-145.17;46.37
32759;BME280;19125;52.360;9.974;2023-04-30T06:57:20;86804.44;;;-145.17;45.64
32759;BME280;19125;52.360;9.974;2023-04-30T06:59:46;86810.41;;;-145.17;46.30
32759;BME280;19125;52.360;9.974;2023-04-30T07:02:11;86798.50;;;-145.17;45.79
32759;BME280;19125;52.360;9.974;2023-04-30T07:04:37;86731.00;;;-145.17;45.07
32759;BME280;19125;52.360;9.974;2023-04-30T07:07:02;86782.63;;;-145.17;44.74
32759;BME280;19125;52.360;9.974;2023-04-30T07:09:28;86701.25;;;-145.17;44.71
32759;BME280;19125;52.360;9.974;2023-04-30T07:11:54;86711.16;;;-145.17;43.83
32759;BME280;19125;52.360;9.974;2023-04-30T07:14:19;86667.50;;;-145.17;44.14
32759;BME280;19125;52.360;9.974;2023-04-30T07:16:46;86627.81;;;-145.17;43.13
32759;BME280;19125;52.360;9.974;2023-04-30T07:19:13;86623.84;;;-145.17;42.20
32759;BME280;19125;52.360;9.974;2023-04-30T07:21:39;86651.63;;;-145.17;42.38
32759;BME280;19125;52.360;9.974;2023-04-30T07:24:04;86578.19;;;-145.17;42.04
32759;BME280;19125;52.360;9.974;2023-04-30T07:26:30;86596.06;;;-145.17;41.67
32759;BME280;19125;52.360;9.974;2023-04-30T07:28:55;86534.53;;;-145.17;40.71
32759;BME280;19125;52.360;9.974;2023-04-30T07:31:20;86548.44;;;-145.17;40.02
32759;BME280;19125;52.360;9.974;2023-04-30T07:33:46;86528.59;;;-145.17;40.33
32759;BME280;19125;52.360;9.974;2023-04-30T07:36:12;86574.22;;;-145.17;40.63
32759;BME280;19125;52.360;9.974;2023-04-30T07:38:38;86524.63;;;-145.17;39.44
32759;BME280;19125;52.360;9.974;2023-04-30T07:41:03;86522.63;;;-145.17;38.74
32759;BME280;19125;52.360;9.974;2023-04-30T07:43:28;86469.06;;;-145.17;38.71
32759;BME280;19125;52.360;9.974;2023-04-30T07:45:55;86459.13;;;-145.17;39.17
32759;BME280;19125;52.360;9.974;2023-04-30T07:48:20;86411.50;;;-145.17;39.08
32759;BME280;19125;52.360;9.974;2023-04-30T07:50:47;86403.56;;;-145.17;38.26
32759;BME280;19125;52.360;9.974;2023-04-30T07:53:12;86413.47;;;-145.17;38.36
32759;BME280;19125;52.360;9.974;2023-04-30T07:55:38;86393.63;;;-145.17;37.63
32759;BME280;19125;52.360;9.974;2023-04-30T07:58:03;86413.47;;;-145.17;37.77
32759;BME280;19125;52.360;9.974;2023-04-30T08:00:28;86441.25;;;-145.17;37.26
32759;BME280;19125;52.360;9.974;2023-04-30T08:02:55;86498.81;;;-145.17;37.34
32759;BME280;19125;52.360;9.974;2023-04-30T08:05:20;86484.94;;;-145.17;37.83
32759;BME280;19125;52.360;9.974;2023-04-30T08:07:46;86477.00;;;-145.17;37.93
32759;BME280;19125;52.360;9.974;2023-04-30T08:10:11;86478.97;;;-145.17;37.67
32759;BME280;19125;52.360;9.974;2023-04-30T08:12:39;86463.09;;;-145.17;37.97
32759;BME280;19125;52.360;9.974;2023-04-30T08:15:05;86465.09;;;-145.17;37.71
32759;BME280;19125;52.360;9.974;2023-04-30T08:17:32;86496.84;;;-145.17;37.69
32759;BME280;19125;52.360;9.974;2023-04-30T08:19:59;86528.59;;;-145.17;37.13
32759;BME280;19125;52.360;9.974;2023-04-30T08:22:24;86463.09;;;-145.17;37.15
32759;BME280;19125;52.360;9.974;2023-04-30T08:24:50;86457.16;;;-145.17;37.15
32759;BME280;19125;52.360;9.974;2023-04-30T08:27:15;86445.25;;;-145.17;37.31
32759;BME280;19125;52.360;9.974;2023-04-30T08:29:41;86435.31;;;-145.17;37.23
32759;BME280;19125;52.360;9.974;2023-04-30T08:32:06;86411.50;;;-145.17;36.97
32759;BME280;19125;52.360;9.974;2023-04-30T08:34:33;86373.78;;;-145.17;36.64
32759;BME280;19125;52.360;9.974;2023-04-30T08:36:59;86338.06;;;-145.17;36.50
32759;BME280;19125;52.360;9.974;2023-04-30T08:39:24;86367.84;;;-145.17;35.91
32759;BME280;19125;52.360;9.974;2023-04-30T08:41:54;86401.56;;;-145.17;36.33
32759;BME280;19125;52.360;9.974;2023-04-30T08:44:25;86381.72;;;-145.17;36.35
32759;BME280;19125;52.360;9.974;2023-04-30T08:46:53;86375.78;;;-145.17;35.95
32759;BME280;19125;52.360;9.974;2023-04-30T08:49:20;86399.59;;;-145.17;35.92
32759;BME280;19125;52.360;9.974;2023-04-30T08:51:47;86395.63;;;-145.17;36.01
32759;BME280;19125;52.360;9.974;2023-04-30T08:54:13;86441.25;;;-145.17;35.85
32759;BME280;19125;52.360;9.974;2023-04-30T08:56:41;86385.69;;;-145.17;35.70
32759;BME280;19125;52.360;9.974;2023-04-30T08:59:06;86361.88;;;-145.17;35.76
32759;BME280;19125;52.360;9.974;2023-04-30T09:01:33;86330.13;;;-145.17;36.06
32759;BME280;19125;52.360;9.974;2023-04-30T09:03:59;86361.88;;;-145.17;35.28
32759;BME280;19125;52.360;9.974;2023-04-30T09:06:27;86322.19;;;-145.17;35.09
32759;BME280;19125;52.360;9.974;2023-04-30T09:08:52;86306.31;;;-145.17;35.38
32759;BME280;19125;52.360;9.974;2023-04-30T09:11:29;86318.22;;;-145.17;35.04
32759;BME280;19125;52.360;9.974;2023-04-30T09:13:57;86322.19;;;-145.17;35.42
32759;BME280;19125;52.360;9.974;2023-04-30T09:16:24;86268.63;;;-145.17;34.92
32759;BME280;19125;52.360;9.974;2023-04-30T09:18:51;86310.28;;;-145.17;34.55
32759;BME280;19125;52.360;9.974;2023-04-30T09:21:29;86314.25;;;-145.17;34.09
32759;BME280;19125;52.360;9.974;2023-04-30T09:23:57;86330.13;;;-145.17;33.87
32759;BME280;19125;52.360;9.974;2023-04-30T09:26:29;86288.47;;;-145.17;34.30
32759;BME280;19125;52.360;9.974;2023-04-30T09:28:57;86278.53;;;-145.17;33.83
32759;BME280;19125;52.360;9.974;2023-04-30T09:31:23;86254.72;;;-145.17;33.24
32759;BME280;19125;52.360;9.974;2023-04-30T09:33:50;86316.25;;;-145.17;32.95
32759;BME280;19125;52.360;9.974;2023-04-30T09:36:16;86308.31;;;-145.17;33.07
32759;BME280;19125;52.360;9.974;2023-04-30T09:38:41;86282.50;;;-145.17;32.84
32759;BME280;19125;52.360;9.974;2023-04-30T09:41:26;86298.38;;;-145.17;32.20
32759;BME280;19125;52.360;9.974;2023-04-30T09:43:56;86278.53;;;-145.17;31.93
32759;BME280;19125;52.360;9.974;2023-04-30T09:46:35;86274.56;;;-145.17;31.98
32759;BME280;19125;52.360;9.974;2023-04-30T09:49:03;86284.50;;;-145.17;32.26
32759;BME280;19125;52.360;9.974;2023-04-30T09:51:29;86294.41;;;-145.17;32.84
32759;BME280;19125;52.360;9.974;2023-04-30T09:53:56;86207.09;;;-145.17;32.85
32759;BME280;19125;52.360;9.974;2023-04-30T09:56:25;86222.97;;;-145.17;32.94
32759;BME280;19125;52.360;9.974;2023-04-30T09:58:55;86234.88;;;-145.17;32.22
32759;BME280;19125;52.360;9.974;2023-04-30T10:01:23;86173.38;;;-145.17;32.28
32759;BME280;19125;52.360;9.974;2023-04-30T10:03:50;86181.31;;;-145.17;32.09
32759;BME280;19125;52.360;9.974;2023-04-30T10:06:17;86143.59;;;-145.17;31.69
32759;BME280;19125;52.360;9.974;2023-04-30T10:08:50;86195.19;;;-145.17;31.75
32759;BME280;19125;52.360;9.974;2023-04-30T10:11:19;86199.16;;;-145.17;31.20
32759;BME280;19125;52.360;9.974;2023-04-30T10:14:07;86185.28;;;-145.17;31.40
32759;BME280;19125;52.360;9.974;2023-04-30T10:19:12;86183.28;;;-145.17;31.22
32759;BME280;19125;52.360;9.974;2023-04-30T10:21:41;86203.13;;;-145.17;31.09
32759;BME280;19125;52.360;9.974;2023-04-30T10:24:12;86238.84;;;-145.17;31.50
32759;BME280;19125;52.360;9.974;2023-04-30T10:26:37;86147.56;;;-145.17;31.11
32759;BME280;19125;52.360;9.974;2023-04-30T10:29:04;86143.59;;;-145.17;31.06
32759;BME280;19125;52.360;9.974;2023-04-30T10:31:30;86137.66;;;-145.17;30.01
32759;BME280;19125;52.360;9.974;2023-04-30T10:33:58;86169.41;;;-145.17;29.83
32759;BME280;19125;52.360;9.974;2023-04-30T10:36:46;86141.63;;;-145.17;29.43
32759;BME280;19125;52.360;9.974;2023-04-30T10:39:20;86127.72;;;-145.17;29.37
32759;BME280;19125;52.360;9.974;2023-04-30T10:41:47;86119.78;;;-145.17;29.38
32759;BME280;19125;52.360;9.974;2023-04-30T10:44:13;86080.09;;;-145.17;29.95
32759;BME280;19125;52.360;9.974;2023-04-30T10:46:39;86074.16;;;-145.17;28.87
32759;BME280;19125;52.360;9.974;2023-04-30T10:49:05;86101.94;;;-145.17;29.66
32759;BME280;19125;52.360;9.974;2023-04-30T10:51:47;86068.19;;;-145.17;28.38
32759;BME280;19125;52.360;9.974;2023-04-30T10:54:23;86084.06;;;-145.17;28.91
32759;BME280;19125;52.360;9.974;2023-04-30T10:56:50;86084.06;;;-145.17;28.21
32759;BME280;19125;52.360;9.974;2023-04-30T10:59:16;86072.16;;;-145.17;28.51
32759;BME280;19125;52.360;9.974;2023-04-30T11:01:57;86094.00;;;-145.17;28.63
32759;BME280;19125;52.360;9.974;2023-04-30T11:04:23;86060.25;;;-145.17;28.23
32759;BME280;19125;52.360;9.974;2023-04-30T11:06:50;86088.03;;;-145.17;27.90
32759;BME280;19125;52.360;9.974;2023-04-30T11:09:19;86040.41;;;-145.17;28.18
32759;BME280;19125;52.360;9.974;2023-04-30T11:12:01;86028.50;;;-145.17;28.37
32759;BME280;19125;52.360;9.974;2023-04-30T11:14:31;85988.81;;;-145.17;27.86
32759;BME280;19125;52.360;9.974;2023-04-30T11:16:58;86016.59;;;-145.17;27.30
32759;BME280;19125;52.360;9.974;2023-04-30T11:19:26;86050.34;;;-145.17;27.62
32759;BME280;19125;52.360;9.974;2023-04-30T11:27:27;86034.47;;;-145.17;27.56
32759;BME280;19125;52.360;9.974;2023-04-30T11:29:54;85976.91;;;-145.17;27.53
32759;BME280;19125;52.360;9.974;2023-04-30T11:32:21;85917.38;;;-145.17;27.05
32759;BME280;19125;52.360;9.974;2023-04-30T11:34:47;85867.78;;;-145.17;26.77
32759;BME280;19125;52.360;9.974;2023-04-30T11:37:30;85921.34;;;-145.17;26.21
32759;BME280;19125;52.360;9.974;2023-04-30T11:40:01;85972.94;;;-145.17;26.33
32759;BME280;19125;52.360;9.974;2023-04-30T11:42:28;85913.41;;;-145.17;26.67
32759;BME280;19125;52.360;9.974;2023-04-30T11:45:02;85965.00;;;-145.17;25.34
32759;BME280;19125;52.360;9.974;2023-04-30T11:47:37;85955.09;;;-145.17;25.91
32759;BME280;19125;52.360;9.974;2023-04-30T11:50:03;85972.94;;;-145.17;26.50
32759;BME280;19125;52.360;9.974;2023-04-30T11:52:28;85949.13;;;-145.17;26.13
32759;BME280;19125;52.360;9.974;2023-04-30T11:54:54;85978.91;;;-145.17;25.73
32759;BME280;19125;52.360;9.974;2023-04-30T11:57:19;85976.91;;;-145.17;26.20
32759;BME280;19125;52.360;9.974;2023-04-30T11:59:45;85941.19;;;-145.17;26.57
32759;BME280;19125;52.360;9.974;2023-04-30T12:02:16;85939.22;;;-145.17;26.38
32759;BME280;19125;52.360;9.974;2023-04-30T12:04:42;85883.66;;;-145.17;25.90
32759;BME280;19125;52.360;9.974;2023-04-30T12:07:08;85923.34;;;-145.17;25.66
32759;BME280;19125;52.360;9.974;2023-04-30T12:09:53;85895.56;;;-145.17;24.65
32759;BME280;19125;52.360;9.974;2023-04-30T12:12:26;85909.44;;;-145.17;24.06
32759;BME280;19125;52.360;9.974;2023-04-30T12:14:51;85929.28;;;-145.17;25.22
32759;BME280;19125;52.360;9.974;2023-04-30T12:17:33;85901.53;;;-145.17;24.86
32759;BME280;19125;52.360;9.974;2023-04-30T12:19:58;85885.66;;;-145.17;25.04
32759;BME280;19125;52.360;9.974;2023-04-30T12:22:24;85915.41;;;-145.17;25.36
32759;BME280;19125;52.360;9.974;2023-04-30T12:24:51;85875.72;;;-145.17;25.85
32759;BME280;19125;52.360;9.974;2023-04-30T12:27:16;85881.69;;;-145.17;25.63
32759;BME280;19125;52.360;9.974;2023-04-30T12:29:45;85832.06;;;-145.17;25.88
32759;BME280;19125;52.360;9.974;2023-04-30T12:32:12;85792.38;;;-145.17;25.51
32759;BME280;19125;52.360;9.974;2023-04-30T12:34:43;85762.63;;;-145.17;25.15
32759;BME280;19125;52.360;9.974;2023-04-30T12:37:08;85808.25;;;-145.17;25.13
32759;BME280;19125;52.360;9.974;2023-04-30T12:39:34;85808.25;;;-145.17;24.36
32759;BME280;19125;52.360;9.974;2023-04-30T12:42:00;85774.53;;;-145.17;23.42
32759;BME280;19125;52.360;9.974;2023-04-30T12:44:26;85832.06;;;-145.17;23.35
32759;BME280;19125;52.360;9.974;2023-04-30T12:46:54;85834.06;;;-145.17;23.89
32759;BME280;19125;52.360;9.974;2023-04-30T12:49:29;85842.00;;;-145.17;23.77
32759;BME280;19125;52.360;9.974;2023-04-30T12:52:03;85840.00;;;-145.17;24.15
32759;BME280;19125;52.360;9.974;2023-04-30T12:54:32;85891.59;;;-145.17;23.80
32759;BME280;19125;52.360;9.974;2023-04-30T12:57:11;85834.06;;;-145.17;23.87
32759;BME280;19125;52.360;9.974;2023-04-30T13:02:18;85695.16;;;-145.17;24.10
32759;BME280;19125;52.360;9.974;2023-04-30T13:04:46;85728.88;;;-145.17;24.00
32759;BME280;19125;52.360;9.974;2023-04-30T13:07:13;85707.06;;;-145.17;24.17
32759;BME280;19125;52.360;9.974;2023-04-30T13:09:38;85713.03;;;-145.17;23.57